Time;durP1;ratioP1;P1;durP2;ratioP2;P2;SDS_P1;SDS_P2;PMS_P1;PMS_P2;Temp;Humidity;BMP_temperature;BMP_pressure;BME280_temperature;BME280_humidity;BME280_pressure;Samples;Min_cycle;Max_cycle;Signal;HPM_P1;HPM_P2
2023/12/04 00:00:10;;;;;;;15.43;6.82;;;;;;;;;;5070016;28;20086;-91
2023/12/04 00:02:40;;;;;;;30.23;11.10;;;;;;;;;;5093085;28;20052;-90
2023/12/04 00:05:28;;;;;;;32.25;10.95;;;;;;;;;;5085787;28;20056;-91
2023/12/04 00:08:09;;;;;;;20.88;7.35;;;;;;;;;;5072431;28;20056;-92
2023/12/04 00:17:39;;;;;;;22.85;9.02;;;;;;;;;;5009277;28;20058;-91
2023/12/04 00:20:20;;;;;;;32.15;13.05;;;;;;;;;;5077804;28;20100;-91
2023/12/04 00:22:48;;;;;;;11.93;5.60;;;;;;;;;;5077461;28;20060;-91
2023/12/04 00:25:25;;;;;;;28.75;9.35;;;;;;;;;;5095568;28;20043;-92
2023/12/04 00:28:00;;;;;;;25.73;11.05;;;;;;;;;;5095570;28;20032;-92
2023/12/04 00:30:30;;;;;;;25.95;11.02;;;;;;;;;;5078364;28;20040;-92
2023/12/04 00:33:07;;;;;;;21.00;10.27;;;;;;;;;;5095150;28;20105;-92
2023/12/04 00:35:35;;;;;;;26.92;10.63;;;;;;;;;;5078276;28;20115;-91
2023/12/04 00:38:17;;;;;;;14.27;6.72;;;;;;;;;;5079742;28;20062;-91
2023/12/04 00:40:58;;;;;;;24.33;10.77;;;;;;;;;;5078423;28;20107;-91
2023/12/04 00:43:42;;;;;;;28.80;11.73;;;;;;;;;;5073767;28;20164;-91
2023/12/04 00:46:11;;;;;;;14.55;6.32;;;;;;;;;;5091075;28;20051;-91
2023/12/04 00:48:54;;;;;;;21.00;9.60;;;;;;;;;;5085945;28;20076;-91
2023/12/04 00:51:38;;;;;;;25.05;9.10;;;;;;;;;;5070768;28;20048;-91
2023/12/04 00:54:15;;;;;;;26.40;10.35;;;;;;;;;;5070940;28;20044;-91
2023/12/04 00:57:06;;;;;;;18.50;8.23;;;;;;;;;;5085805;28;20048;-91
2023/12/04 00:59:37;;;;;;;21.30;7.75;;;;;;;;;;5069420;28;20075;-91
2023/12/04 01:02:07;;;;;;;22.13;10.20;;;;;;;;;;5069921;28;20048;-91
2023/12/04 01:04:52;;;;;;;24.10;9.55;;;;;;;;;;5073069;28;20151;-90
2023/12/04 01:07:35;;;;;;;21.02;9.70;;;;;;;;;;5067958;28;20044;-90
2023/12/04 01:10:25;;;;;;;17.98;9.07;;;;;;;;;;5081268;28;20116;-91
2023/12/04 01:13:05;;;;;;;23.20;9.07;;;;;;;;;;5071205;28;20059;-91
2023/12/04 01:15:50;;;;;;;23.88;12.00;;;;;;;;;;5086863;28;20345;-90
2023/12/04 01:18:28;;;;;;;25.15;9.18;;;;;;;;;;5088961;28;20074;-92
2023/12/04 01:21:02;;;;;;;22.38;8.95;;;;;;;;;;5074095;28;20059;-90
2023/12/04 01:24:09;;;;;;;15.90;7.85;;;;;;;;;;5123145;22;20102;-91
2023/12/04 01:26:39;;;;;;;8.87;5.47;;;;;;;;;;5066299;28;20078;-91
2023/12/04 01:29:22;;;;;;;24.42;10.48;;;;;;;;;;5080059;28;20049;-91
2023/12/04 01:31:53;;;;;;;26.48;8.52;;;;;;;;;;5077104;28;20044;-91
2023/12/04 01:34:35;;;;;;;24.70;9.68;;;;;;;;;;5095229;28;20056;-91
2023/12/04 01:37:05;;;;;;;22.90;10.93;;;;;;;;;;5077994;28;20058;-92
2023/12/04 01:39:34;;;;;;;27.20;10.88;;;;;;;;;;5076514;28;20051;-90
2023/12/04 01:42:07;;;;;;;21.70;6.97;;;;;;;;;;5081430;28;20036;-91
2023/12/04 01:44:36;;;;;;;21.67;10.20;;;;;;;;;;5186965;22;20070;-90
2023/12/04 01:47:07;;;;;;;21.35;9.18;;;;;;;;;;5098098;28;20048;-90
2023/12/04 01:49:55;;;;;;;19.92;8.05;;;;;;;;;;5097096;28;20036;-92
2023/12/04 01:52:29;;;;;;;22.02;8.40;;;;;;;;;;5081321;28;20096;-91
2023/12/04 01:55:01;;;;;;;19.05;8.70;;;;;;;;;;5081048;28;20049;-91
2023/12/04 01:57:46;;;;;;;19.67;6.82;;;;;;;;;;5081719;28;20049;-91
2023/12/04 02:00:27;;;;;;;25.27;10.02;;;;;;;;;;5081515;28;20052;-91
2023/12/04 02:02:56;;;;;;;15.00;8.02;;;;;;;;;;5080910;28;20108;-92
2023/12/04 02:05:38;;;;;;;27.20;10.68;;;;;;;;;;5077881;28;20320;-90
2023/12/04 02:08:19;;;;;;;18.30;7.13;;;;;;;;;;5074540;28;20053;-90
2023/12/04 02:11:03;;;;;;;19.27;8.60;;;;;;;;;;5072966;28;20052;-90
2023/12/04 02:13:34;;;;;;;18.85;8.77;;;;;;;;;;5071393;28;20206;-90
2023/12/04 02:16:06;;;;;;;18.88;7.07;;;;;;;;;;5071574;28;20055;-90
2023/12/04 02:18:50;;;;;;;21.80;8.85;;;;;;;;;;5068683;28;20041;-91
2023/12/04 02:21:31;;;;;;;30.15;10.43;;;;;;;;;;5071339;28;20028;-91
2023/12/04 02:23:59;;;;;;;21.15;7.65;;;;;;;;;;5072647;28;20571;-91
2023/12/04 02:26:43;;;;;;;22.63;10.48;;;;;;;;;;5072690;28;20064;-91
2023/12/04 02:29:15;;;;;;;23.52;8.07;;;;;;;;;;5075304;28;20048;-91
2023/12/04 02:31:56;;;;;;;15.90;5.03;;;;;;;;;;5070297;28;20058;-91
2023/12/04 02:34:27;;;;;;;28.48;11.60;;;;;;;;;;5072306;28;20052;-91
2023/12/04 02:37:09;;;;;;;20.63;8.18;;;;;;;;;;5072600;28;20053;-90
2023/12/04 02:39:39;;;;;;;13.65;7.55;;;;;;;;;;5063806;28;20121;-91
2023/12/04 02:42:09;;;;;;;19.48;8.07;;;;;;;;;;5072307;28;20048;-91
2023/12/04 02:44:52;;;;;;;14.77;7.85;;;;;;;;;;5085022;28;20108;-91
2023/12/04 02:47:20;;;;;;;17.10;8.90;;;;;;;;;;5070476;28;20053;-91
2023/12/04 02:49:50;;;;;;;23.50;9.85;;;;;;;;;;5072043;28;20109;-91
2023/12/04 02:52:34;;;;;;;20.80;9.80;;;;;;;;;;5072531;28;20060;-91
2023/12/04 02:55:17;;;;;;;14.00;8.18;;;;;;;;;;5091353;28;20047;-92
2023/12/04 02:57:58;;;;;;;18.50;8.18;;;;;;;;;;5077715;28;20044;-91
2023/12/04 03:00:28;;;;;;;11.45;6.85;;;;;;;;;;5072116;28;20087;-91
2023/12/04 03:03:02;;;;;;;17.83;7.63;;;;;;;;;;5072647;28;20055;-91
2023/12/04 03:05:42;;;;;;;22.83;7.40;;;;;;;;;;5064357;28;20098;-92
2023/12/04 03:08:26;;;;;;;18.15;7.35;;;;;;;;;;5072808;28;20044;-90
2023/12/04 03:10:56;;;;;;;13.70;7.20;;;;;;;;;;5070556;28;20055;-91
2023/12/04 03:13:27;;;;;;;12.90;6.35;;;;;;;;;;5071115;28;20055;-90
2023/12/04 03:16:21;;;;;;;20.65;7.60;;;;;;;;;;5071625;28;20070;-91
2023/12/04 03:19:02;;;;;;;21.50;8.00;;;;;;;;;;5071990;28;20051;-91
2023/12/04 03:21:31;;;;;;;16.90;7.00;;;;;;;;;;5070877;28;20048;-91
2023/12/04 03:24:02;;;;;;;9.55;6.30;;;;;;;;;;5089648;28;20052;-91
2023/12/04 03:26:46;;;;;;;20.30;9.90;;;;;;;;;;5064619;28;20059;-91
2023/12/04 03:29:17;;;;;;;23.58;9.18;;;;;;;;;;5071221;28;20116;-92
2023/12/04 03:31:45;;;;;;;16.92;6.95;;;;;;;;;;5071194;28;20052;-91
2023/12/04 03:34:19;;;;;;;22.02;8.70;;;;;;;;;;5089737;28;20052;-91
2023/12/04 03:36:56;;;;;;;16.25;7.72;;;;;;;;;;5089335;28;20068;-91
2023/12/04 03:39:30;;;;;;;12.95;5.72;;;;;;;;;;5073583;28;20032;-92
2023/12/04 03:42:08;;;;;;;21.58;9.65;;;;;;;;;;5090427;28;20067;-92
2023/12/04 03:44:37;;;;;;;22.27;8.57;;;;;;;;;;5090365;28;20060;-92
2023/12/04 03:47:20;;;;;;;21.73;8.35;;;;;;;;;;5073677;28;20096;-92
2023/12/04 03:49:52;;;;;;;21.00;8.23;;;;;;;;;;5073853;28;20106;-91
2023/12/04 03:52:24;;;;;;;19.15;7.03;;;;;;;;;;5073496;28;20108;-92
2023/12/04 03:54:54;;;;;;;19.75;8.73;;;;;;;;;;5076089;28;20464;-91
2023/12/04 03:57:24;;;;;;;15.25;7.38;;;;;;;;;;5095240;28;20327;-89
2023/12/04 03:59:53;;;;;;;16.83;7.70;;;;;;;;;;5077505;28;20091;-91
2023/12/04 04:02:28;;;;;;;21.52;8.25;;;;;;;;;;5078208;28;20066;-92
2023/12/04 04:05:03;;;;;;;24.02;8.23;;;;;;;;;;5078549;28;20067;-91
2023/12/04 04:07:37;;;;;;;11.32;6.18;;;;;;;;;;5095242;28;20036;-92
2023/12/04 04:10:09;;;;;;;9.55;4.88;;;;;;;;;;5078756;28;20044;-93
2023/12/04 04:12:39;;;;;;;19.02;7.13;;;;;;;;;;5095661;28;20049;-91
2023/12/04 04:15:10;;;;;;;22.77;9.60;;;;;;;;;;5075382;28;20060;-91
2023/12/04 04:17:40;;;;;;;21.85;8.50;;;;;;;;;;5072122;28;20062;-91
2023/12/04 04:20:26;;;;;;;24.23;8.23;;;;;;;;;;5075747;28;20071;-92
2023/12/04 04:22:54;;;;;;;18.15;7.00;;;;;;;;;;5076060;28;20062;-92
2023/12/04 04:25:23;;;;;;;11.90;6.25;;;;;;;;;;5090330;28;20045;-92
2023/12/04 04:28:00;;;;;;;13.07;7.20;;;;;;;;;;5072664;28;20108;-92
2023/12/04 04:30:37;;;;;;;14.60;6.72;;;;;;;;;;5088531;28;20079;-92
2023/12/04 04:33:21;;;;;;;20.70;7.65;;;;;;;;;;5089947;28;20044;-91
2023/12/04 04:36:03;;;;;;;13.18;6.05;;;;;;;;;;5087528;28;20041;-91
2023/12/04 04:38:32;;;;;;;19.50;6.22;;;;;;;;;;5071394;28;20074;-91
2023/12/04 04:41:02;;;;;;;14.88;5.53;;;;;;;;;;5087711;28;20071;-91
2023/12/04 04:43:30;;;;;;;12.38;6.68;;;;;;;;;;5069987;28;20076;-91
2023/12/04 04:46:01;;;;;;;13.68;7.35;;;;;;;;;;5071481;28;20412;-92
2023/12/04 04:48:33;;;;;;;18.52;8.40;;;;;;;;;;5070641;28;20044;-90
2023/12/04 04:51:02;;;;;;;9.25;5.20;;;;;;;;;;5071580;28;20121;-93
2023/12/04 04:53:43;;;;;;;17.33;6.55;;;;;;;;;;5068178;28;20052;-92
2023/12/04 04:56:19;;;;;;;12.77;5.80;;;;;;;;;;5082051;28;20054;-93
2023/12/04 04:58:49;;;;;;;12.45;5.13;;;;;;;;;;5074918;28;20048;-92
2023/12/04 05:01:20;;;;;;;21.48;7.00;;;;;;;;;;5074377;28;20032;-92
2023/12/04 05:03:54;;;;;;;18.17;5.70;;;;;;;;;;5091445;28;20055;-91
2023/12/04 05:06:26;;;;;;;19.73;8.23;;;;;;;;;;5074451;28;20036;-92
2023/12/04 05:09:10;;;;;;;17.27;7.43;;;;;;;;;;5074913;28;20104;-92
2023/12/04 05:11:43;;;;;;;16.98;7.22;;;;;;;;;;5091464;28;20040;-91
2023/12/04 05:14:17;;;;;;;11.82;5.05;;;;;;;;;;5075881;28;20135;-92
2023/12/04 05:16:49;;;;;;;17.35;7.72;;;;;;;;;;5090884;28;20049;-92
2023/12/04 05:19:31;;;;;;;12.88;5.70;;;;;;;;;;5089591;28;20055;-92
2023/12/04 05:22:14;;;;;;;22.48;8.65;;;;;;;;;;5073425;28;20045;-93
2023/12/04 05:25:00;;;;;;;15.65;6.97;;;;;;;;;;5074919;28;20048;-92
2023/12/04 05:27:47;;;;;;;22.33;7.13;;;;;;;;;;5091001;28;20048;-91
2023/12/04 05:30:16;;;;;;;17.25;7.22;;;;;;;;;;5074105;28;20056;-91
2023/12/04 05:49:02;;;;;;;10.00;4.95;;;;;;;;;;5022792;23;20499;-92
2023/12/04 05:51:31;;;;;;;6.13;3.50;;;;;;;;;;5010063;28;20183;-91
2023/12/04 05:54:06;;;;;;;23.52;7.82;;;;;;;;;;5004967;28;20053;-91
2023/12/04 05:56:47;;;;;;;14.48;6.70;;;;;;;;;;5010310;28;20126;-91
2023/12/04 05:59:28;;;;;;;9.40;3.97;;;;;;;;;;5004347;28;20192;-91
2023/12/04 06:02:00;;;;;;;16.45;6.65;;;;;;;;;;5000853;28;20054;-92
2023/12/04 06:04:29;;;;;;;13.45;5.18;;;;;;;;;;5005520;28;20121;-91
2023/12/04 06:07:02;;;;;;;4.88;3.63;;;;;;;;;;5002930;28;20050;-92
2023/12/04 06:09:38;;;;;;;16.02;7.03;;;;;;;;;;5008328;28;20054;-92
2023/12/04 06:12:09;;;;;;;22.20;8.07;;;;;;;;;;5004035;28;20065;-91
2023/12/04 06:14:45;;;;;;;19.90;5.95;;;;;;;;;;5008784;28;20062;-92
2023/12/04 06:17:21;;;;;;;14.07;6.80;;;;;;;;;;5008476;28;20054;-91
2023/12/04 06:20:02;;;;;;;11.90;5.55;;;;;;;;;;5005289;28;20093;-91
2023/12/04 06:22:43;;;;;;;17.48;7.25;;;;;;;;;;5008126;28;20054;-91
2023/12/04 06:25:31;;;;;;;9.63;3.83;;;;;;;;;;5003754;28;20050;-91
2023/12/04 06:28:08;;;;;;;18.65;7.75;;;;;;;;;;5000447;28;20110;-91
2023/12/04 06:30:41;;;;;;;15.93;7.22;;;;;;;;;;5005402;28;20116;-92
2023/12/04 06:33:12;;;;;;;10.82;5.25;;;;;;;;;;5000503;28;20042;-92
2023/12/04 06:35:41;;;;;;;18.48;7.07;;;;;;;;;;5002762;28;20302;-92
2023/12/04 06:38:24;;;;;;;18.70;8.43;;;;;;;;;;5002145;28;20122;-91
2023/12/04 06:40:55;;;;;;;15.43;6.05;;;;;;;;;;5004128;28;20077;-91
2023/12/04 06:43:36;;;;;;;20.65;8.43;;;;;;;;;;5005042;28;20050;-91
2023/12/04 06:46:18;;;;;;;24.48;8.73;;;;;;;;;;5003317;28;20354;-92
2023/12/04 06:49:00;;;;;;;18.65;7.70;;;;;;;;;;4996233;28;20069;-91
2023/12/04 06:51:38;;;;;;;22.98;8.77;;;;;;;;;;5004402;28;20046;-91
2023/12/04 06:54:20;;;;;;;21.95;7.28;;;;;;;;;;5000201;28;20339;-91
2023/12/04 06:57:03;;;;;;;17.35;6.70;;;;;;;;;;4996268;28;20246;-91
2023/12/04 06:59:43;;;;;;;19.00;8.65;;;;;;;;;;5003731;28;20058;-91
2023/12/04 07:02:16;;;;;;;9.45;4.70;;;;;;;;;;4999862;28;20054;-91
2023/12/04 07:04:52;;;;;;;15.02;6.25;;;;;;;;;;5000320;28;20065;-91
2023/12/04 07:07:33;;;;;;;5.85;2.92;;;;;;;;;;5002570;28;20136;-91
2023/12/04 07:10:14;;;;;;;17.17;5.53;;;;;;;;;;4979434;28;20081;-90
2023/12/04 07:12:50;;;;;;;18.60;8.38;;;;;;;;;;5003144;28;20050;-91
2023/12/04 07:15:28;;;;;;;18.58;7.07;;;;;;;;;;5003934;28;20058;-90
2023/12/04 07:18:08;;;;;;;17.10;6.20;;;;;;;;;;5005459;28;20034;-91
2023/12/04 07:20:49;;;;;;;22.55;7.18;;;;;;;;;;5003476;28;20066;-90
2023/12/04 07:23:25;;;;;;;16.17;5.85;;;;;;;;;;5001849;28;20078;-91
2023/12/04 07:26:06;;;;;;;11.20;6.30;;;;;;;;;;4998688;28;20054;-92
2023/12/04 07:28:48;;;;;;;9.18;4.80;;;;;;;;;;5001125;28;20064;-91
2023/12/04 07:31:21;;;;;;;13.95;5.90;;;;;;;;;;5000514;28;20057;-90
2023/12/04 07:34:02;;;;;;;13.32;7.30;;;;;;;;;;4984186;28;20469;-90
2023/12/04 07:36:44;;;;;;;11.00;5.75;;;;;;;;;;4987899;28;20053;-91
2023/12/04 07:39:25;;;;;;;14.23;4.57;;;;;;;;;;5003528;28;20060;-91
2023/12/04 07:42:09;;;;;;;10.85;4.47;;;;;;;;;;4998979;28;20234;-91
2023/12/04 07:44:44;;;;;;;22.05;6.35;;;;;;;;;;5003211;28;20050;-91
2023/12/04 07:47:25;;;;;;;24.45;8.80;;;;;;;;;;5004764;28;20235;-91
2023/12/04 07:49:54;;;;;;;13.43;4.90;;;;;;;;;;4998076;28;20054;-91
2023/12/04 07:52:35;;;;;;;15.68;8.23;;;;;;;;;;5010697;23;20259;-91
2023/12/04 07:55:16;;;;;;;15.88;4.65;;;;;;;;;;4990599;28;20117;-92
2023/12/04 07:57:59;;;;;;;20.52;8.98;;;;;;;;;;5005928;28;20054;-92
2023/12/04 08:00:40;;;;;;;19.13;7.97;;;;;;;;;;4994294;28;20058;-91
2023/12/04 08:03:20;;;;;;;21.02;9.93;;;;;;;;;;4995776;28;20057;-92
2023/12/04 08:06:03;;;;;;;22.92;8.15;;;;;;;;;;4995225;28;20061;-91
2023/12/04 08:08:42;;;;;;;16.63;8.82;;;;;;;;;;4991869;28;20056;-91
2023/12/04 08:11:25;;;;;;;;;;;;;;;;;;4989572;28;20050;-91
2023/12/04 08:14:06;;;;;;;16.40;7.00;;;;;;;;;;4988067;28;19910;-90
2023/12/04 08:16:38;;;;;;;19.88;6.68;;;;;;;;;;5010902;28;20065;-91
2023/12/04 08:19:13;;;;;;;18.63;8.40;;;;;;;;;;4990030;28;20053;-91
2023/12/04 08:21:50;;;;;;;22.10;9.32;;;;;;;;;;4987782;28;20057;-92
2023/12/04 08:24:21;;;;;;;11.85;6.82;;;;;;;;;;4987349;28;20125;-92
2023/12/04 08:26:50;;;;;;;13.15;6.43;;;;;;;;;;4986466;28;20054;-92
2023/12/04 08:29:19;;;;;;;20.10;7.25;;;;;;;;;;4989032;28;20322;-92
2023/12/04 08:31:48;;;;;;;17.10;6.78;;;;;;;;;;4989307;28;20089;-92
2023/12/04 08:34:33;;;;;;;16.85;7.35;;;;;;;;;;4991431;28;20203;-90
2023/12/04 08:37:04;;;;;;;15.32;7.30;;;;;;;;;;5008525;28;20038;-92
2023/12/04 08:39:35;;;;;;;20.75;8.25;;;;;;;;;;4991522;28;20112;-92
2023/12/04 08:42:08;;;;;;;28.15;7.75;;;;;;;;;;4991311;28;20418;-92
2023/12/04 08:44:47;;;;;;;19.13;8.25;;;;;;;;;;4994885;28;20234;-91
2023/12/04 08:47:19;;;;;;;17.83;7.15;;;;;;;;;;4997185;28;20057;-91
2023/12/04 08:50:00;;;;;;;16.20;7.60;;;;;;;;;;4992677;28;20045;-91
2023/12/04 08:52:41;;;;;;;14.10;6.78;;;;;;;;;;4991082;28;20066;-92
2023/12/04 08:55:19;;;;;;;17.10;8.07;;;;;;;;;;4992305;28;20122;-92
2023/12/04 20:09:20;;;;;;;7.85;4.80;;;;;;;;;;4973450;28;20054;-90
2023/12/04 20:12:34;;;;;;;;;;;;;;;;;;;;;
2023/12/04 20:35:44;;;;;;;9.80;4.93;;;;;;;;;;4894470;29;20089;-92
2023/12/04 20:38:31;;;;;;;7.13;3.90;;;;;;;;;;4891602;29;20040;-91
2023/12/04 20:48:16;;;;;;;6.25;3.88;;;;;;;;;;5460110;23;20086;-91
2023/12/04 20:51:12;;;;;;;4.97;3.20;;;;;;;;;;4964576;28;20090;-90
2023/12/04 20:54:27;;;;;;;;;;;;;;;;;;;;;
2023/12/04 20:57:41;;;;;;;9.82;4.65;;;;;;;;;;4969862;28;20061;-89
2023/12/04 21:01:10;;;;;;;7.78;4.72;;;;;;;;;;4967075;28;20058;-90
2023/12/04 21:07:24;;;;;;;;;;;;;;;;;;;;;
2023/12/04 21:10:05;;;;;;;9.48;4.00;;;;;;;;;;4967377;28;20051;-90
2023/12/04 21:12:52;;;;;;;13.10;4.70;;;;;;;;;;4961932;28;20276;-90
2023/12/04 21:15:25;;;;;;;6.30;3.70;;;;;;;;;;4964366;28;20055;-91
2023/12/04 21:18:15;;;;;;;7.05;3.67;;;;;;;;;;4965878;28;20031;-90
2023/12/04 21:20:53;;;;;;;5.30;3.60;;;;;;;;;;4957791;28;20051;-90
2023/12/04 21:23:27;;;;;;;10.43;4.60;;;;;;;;;;4965928;28;20142;-90
2023/12/04 21:26:17;;;;;;;5.07;3.10;;;;;;;;;;4966783;28;20090;-90
2023/12/04 21:28:52;;;;;;;9.77;3.65;;;;;;;;;;4958868;29;20152;-91
2023/12/04 21:31:33;;;;;;;12.85;4.70;;;;;;;;;;4962431;28;20388;-89
2023/12/04 21:34:03;;;;;;;5.57;3.45;;;;;;;;;;4962564;29;20413;-90
2023/12/04 21:36:48;;;;;;;12.00;5.43;;;;;;;;;;4967980;28;20051;-90
2023/12/04 21:39:21;;;;;;;13.32;3.95;;;;;;;;;;4968734;28;20114;-89
2023/12/04 21:42:04;;;;;;;14.07;3.65;;;;;;;;;;4972772;28;20046;-90
2023/12/04 21:44:35;;;;;;;6.22;3.22;;;;;;;;;;4972055;28;20054;-90
2023/12/04 21:47:06;;;;;;;5.95;2.67;;;;;;;;;;4968275;28;20051;-90
2023/12/04 21:49:47;;;;;;;6.13;3.38;;;;;;;;;;4977207;28;20057;-90
2023/12/04 21:52:20;;;;;;;7.55;3.67;;;;;;;;;;4975501;28;20395;-89
2023/12/04 21:54:57;;;;;;;6.47;3.15;;;;;;;;;;4974761;28;20222;-91
2023/12/04 21:57:39;;;;;;;9.70;4.07;;;;;;;;;;4992131;28;20118;-90
2023/12/04 22:00:20;;;;;;;5.45;3.20;;;;;;;;;;4980822;28;20124;-91
2023/12/04 22:02:56;;;;;;;6.10;3.38;;;;;;;;;;4975270;28;20050;-91
2023/12/04 22:05:26;;;;;;;5.25;3.17;;;;;;;;;;4990174;28;20065;-90
2023/12/04 22:08:08;;;;;;;8.05;3.90;;;;;;;;;;4991892;28;20057;-89
2023/12/04 22:10:51;;;;;;;5.10;2.67;;;;;;;;;;4981017;28;20050;-90
2023/12/04 22:13:37;;;;;;;10.65;4.95;;;;;;;;;;4982470;28;20061;-91
2023/12/04 22:16:18;;;;;;;7.13;3.40;;;;;;;;;;4981075;28;20043;-90
2023/12/04 22:18:55;;;;;;;9.35;4.68;;;;;;;;;;4981710;28;20051;-90
2023/12/04 22:21:26;;;;;;;2.25;1.40;;;;;;;;;;4981165;28;20055;-90
2023/12/04 22:24:02;;;;;;;8.82;4.20;;;;;;;;;;4994970;28;20273;-89
2023/12/04 22:26:37;;;;;;;10.95;4.07;;;;;;;;;;4973862;28;20166;-90
2023/12/04 22:29:18;;;;;;;11.90;4.93;;;;;;;;;;4991006;28;20059;-91
2023/12/04 22:32:00;;;;;;;10.00;4.63;;;;;;;;;;4976816;28;20062;-91
2023/12/04 22:34:41;;;;;;;3.95;2.50;;;;;;;;;;4988601;28;20050;-91
2023/12/04 22:37:23;;;;;;;9.55;3.75;;;;;;;;;;4974136;28;20062;-91
2023/12/04 22:39:56;;;;;;;6.22;3.50;;;;;;;;;;4989219;28;20115;-90
2023/12/04 22:42:27;;;;;;;8.10;3.80;;;;;;;;;;4976629;28;20332;-91
2023/12/04 22:45:28;;;;;;;8.25;4.35;;;;;;;;;;5166467;27;24890;-91
2023/12/04 22:48:08;;;;;;;6.00;2.95;;;;;;;;;;5149249;27;20061;-90
2023/12/04 22:50:38;;;;;;;11.27;4.82;;;;;;;;;;5148088;27;20058;-90
2023/12/04 22:53:06;;;;;;;12.50;4.18;;;;;;;;;;5149675;27;20134;-91
2023/12/04 22:55:43;;;;;;;7.85;4.65;;;;;;;;;;5152924;27;20063;-91
2023/12/04 22:58:24;;;;;;;10.25;4.95;;;;;;;;;;5152077;27;20061;-90
2023/12/04 23:00:55;;;;;;;8.02;3.92;;;;;;;;;;5170585;27;20105;-91
2023/12/04 23:03:30;;;;;;;6.18;3.88;;;;;;;;;;5152608;27;20047;-90
2023/12/04 23:06:02;;;;;;;11.32;4.25;;;;;;;;;;5156454;27;20107;-90
2023/12/04 23:08:46;;;;;;;14.98;5.10;;;;;;;;;;5150346;27;20402;-91
2023/12/04 23:11:15;;;;;;;7.18;4.22;;;;;;;;;;5166868;27;20046;-90
2023/12/04 23:13:56;;;;;;;14.48;5.15;;;;;;;;;;5148404;27;20035;-90
2023/12/04 23:16:41;;;;;;;15.95;4.35;;;;;;;;;;5148141;27;20074;-91
2023/12/04 23:19:17;;;;;;;6.90;3.20;;;;;;;;;;5179800;27;20072;-90
2023/12/04 23:21:50;;;;;;;11.55;5.88;;;;;;;;;;5164259;27;20057;-92
2023/12/04 23:24:31;;;;;;;6.40;3.33;;;;;;;;;;5149311;27;20034;-90
2023/12/04 23:27:12;;;;;;;8.05;3.08;;;;;;;;;;5154984;27;20134;-89
2023/12/04 23:29:55;;;;;;;13.60;5.43;;;;;;;;;;5147552;27;20050;-89
2023/12/04 23:32:26;;;;;;;16.55;6.28;;;;;;;;;;5165165;27;20043;-90
2023/12/04 23:35:08;;;;;;;8.10;3.80;;;;;;;;;;5147675;27;20043;-91
2023/12/04 23:37:50;;;;;;;8.65;4.82;;;;;;;;;;5148409;27;20051;-91
2023/12/04 23:40:32;;;;;;;13.60;5.78;;;;;;;;;;5147771;27;20066;-91
2023/12/04 23:43:11;;;;;;;9.43;3.03;;;;;;;;;;5162931;27;20137;-91
2023/12/04 23:45:40;;;;;;;10.65;5.05;;;;;;;;;;5147682;27;20027;-91
2023/12/04 23:48:23;;;;;;;8.77;5.07;;;;;;;;;;5149068;27;20119;-91
2023/12/04 23:50:52;;;;;;;13.80;6.88;;;;;;;;;;5147191;27;20047;-90
2023/12/04 23:53:22;;;;;;;5.65;2.25;;;;;;;;;;5146804;27;20122;-91
2023/12/04 23:55:53;;;;;;;7.30;4.05;;;;;;;;;;5138037;27;20061;-90
2023/12/04 23:58:23;;;;;;;7.85;3.78;;;;;;;;;;5133665;27;20072;-91
